Aeroporto :
LOGIN :

Iscrizione | Disclaimer

   EN    FR    IT 

 










Sommario :    VFR   VFR Marginale   IFR   IFR Intensivo   IFR Molto Intensivo
Visibilità : 
Base nubi : 
>= 8 km
>= 3000ft
5 / 8 km
1000 / 3000 ft
1500m / 5 km
500 / 1000 ft
800 / 1500m
200 / 500 ft
< 800m
< 200 ft
Simboli :   Temporali  Nebbia  Neve Forte  Precipitazioni Forti  Vento > 20 kt
SIGMETs :   Varie  Temporali  Ghiacco  Turbolenza  Onda orograficha  Ceneri Vulcaniche






- Altitudine del aeroporto : 1363 ft


ETIC - Grafenwohr Army Air Field

ULTIMO METAR :
  • 090628Z AUTO 00000KT 3200 -UP BR OVC013 M01/M02 A2960 RMK AO2 SNE07UPB07E25UPB28 SLP048 FZRANO $

METARs OBSOLETI :
  • 090607Z AUTO 00000KT 3200 -UP BR OVC012 M01/M02 A2960 RMK AO2 SLP048 FZRANO $
  • 090556Z AUTO 00000KT 3200 -SN BR OVC012 M01/M02 A2960 RMK AO2 SNE16SNB25 SLP048 P0000 60000 T10141020 11011 21015 53008 FZRANO $
  • 090540Z AUTO 00000KT 3200 -SN BR OVC016 M01/M02 A2960 RMK AO2 SNE16SNB25 CIG 016V020 SLP048 FZRANO $
  • 090525Z AUTO 00000KT 5000 -SN BR OVC020 M01/M02 A2959 RMK AO2 SNE16SNB25 SLP045 FZRANO $
  • 090516Z AUTO 00000KT 5000 BR OVC019 M01/M02 A2959 RMK AO2 CIG 015V019 SLP045 FZRANO $
  • 090501Z AUTO 00000KT 3000 -SN BR FEW009 OVC013 M01/M02 A2959 RMK AO2 SLP045 FZRANO $
  • 090456Z AUTO 00000KT 2800 -SN BR OVC010 M01/M02 A2959 RMK AO2 SNE0356UPB0356E07UPB11E20UPB41E50SNB50 SLP045 P0000 T10151021 FZRANO $
  • 090441Z AUTO 00000KT 4000 -UP BR OVC010 M01/M02 A2959 RMK AO2 VIS 4000V5000 SNE0356UPB0356E07UPB11E20UPB41 SLP045 FZRANO $

TAF TAF ETIC
Valido dal 09 a 02 ore il 10 a 08 ore UTC


090200Z 0902/1008 VRB03KT 3200 -RASN BKN007 OVC010 650109 QNH2961INS
TEMPO 0910/0916 1600 -SN BKN003
BECMG 0917/0918 VRB03KT 5000 -SN BKN010 OVC015 650109 QNH2967INS TX00/0915Z TNM04/0902Z



MetMap, La meteo Aeronautica in un colpo d'occhio ! - Copyright ORBIFLY Dicembre 2007 - Disclaimer

ORBIFLY MET'MAP TEAM :

Programmazione e sviluppo : Alexandra Zaïnal
Concezione : Baudouin d'Aumeries
Aiuto per la programmazione : Marc-Olivier Méhu
Supporto tecnico e logistico : Manuel Goepfert
Aiuto per la traduzione : Arnaldo La Scala

Contatto : metmap@orbifly.com




FONTI E CREDITI :

   NOAA